Riverwoods, Illinois
Current Conditions -  °F | °C
As of 4:52 AM on Wednesday 22 Oct 2014 (Local Time) from KPWK Reporting Station
Overcast Overcast  
Wind Chill: 44°   Ceiling: 3100
Heat Index: 46°   Visibility: 10mi
Dew Point: 39°   Wind: 5mph
Humidity: 76%   Direction: 330°NNW
Pressure: 30.31"   Gusts: NA
Location:  42.1724°N, 87.8767°W
Report Text: KPWK 220952Z AUTO 33004KT 10SM OVC031 08/04 A3031 RMK AO2 SLP267 T00780039
Loading
Personal Weather Stations






























Interactive Weather Map
Tropical Storm Tracking
New forecast layout! Learn more

10-Day Weather Forecast

Advertisements
Track Severe Weather on mobile